sensor_id;sensor_type;location;lat;lon;timestamp;pressure;altitude;pressure_sealevel;temperature;humidity
38038;BME280;23843;51.320;12.340;2022-11-22T05:31:13;98673.16;;;1.40;100.00
38038;BME280;23843;51.320;12.340;2022-11-22T05:33:40;98671.19;;;1.45;100.00
38038;BME280;23843;51.320;12.340;2022-11-22T05:36:06;98678.84;;;1.50;100.00
38038;BME280;23843;51.320;12.340;2022-11-22T05:38:32;98680.03;;;1.43;100.00
38038;BME280;23843;51.320;12.340;2022-11-22T05:40:58;98676.56;;;1.42;100.00
38038;BME280;23843;51.320;12.340;2022-11-22T05:43:23;98679.22;;;1.41;100.00
38038;BME280;23843;51.320;12.340;2022-11-22T05:45:49;98680.81;;;1.45;100.00
38038;BME280;23843;51.320;12.340;2022-11-22T05:48:15;98673.75;;;1.47;100.00
38038;BME280;23843;51.320;12.340;2022-11-22T05:50:41;98666.81;;;1.46;100.00
38038;BME280;23843;51.320;12.340;2022-11-22T05:53:06;98677.00;;;1.52;100.00
38038;BME280;23843;51.320;12.340;2022-11-22T05:55:32;98678.78;;;1.52;100.00
38038;BME280;23843;51.320;12.340;2022-11-22T05:57:58;98685.72;;;1.51;100.00
38038;BME280;23843;51.320;12.340;2022-11-22T06:00:24;98689.03;;;1.56;100.00
38038;BME280;23843;51.320;12.340;2022-11-22T06:02:49;98698.53;;;1.57;100.00
38038;BME280;23843;51.320;12.340;2022-11-22T06:05:16;98695.00;;;1.58;100.00
38038;BME280;23843;51.320;12.340;2022-11-22T06:07:42;98687.25;;;1.57;100.00
38038;BME280;23843;51.320;12.340;2022-11-22T06:10:08;98695.34;;;1.50;100.00
38038;BME280;23843;51.320;12.340;2022-11-22T06:12:34;98700.38;;;1.35;100.00
38038;BME280;23843;51.320;12.340;2022-11-22T06:14:59;98700.63;;;1.28;100.00
38038;BME280;23843;51.320;12.340;2022-11-22T06:17:25;98706.13;;;1.22;100.00
38038;BME280;23843;51.320;12.340;2022-11-22T06:19:50;98710.56;;;1.20;100.00
38038;BME280;23843;51.320;12.340;2022-11-22T06:22:17;98708.75;;;1.22;100.00
38038;BME280;23843;51.320;12.340;2022-11-22T06:24:42;98706.97;;;1.23;100.00
38038;BME280;23843;51.320;12.340;2022-11-22T06:27:08;98713.75;;;1.27;100.00
38038;BME280;23843;51.320;12.340;2022-11-22T06:29:33;98714.75;;;1.24;100.00
38038;BME280;23843;51.320;12.340;2022-11-22T06:31:59;98713.81;;;1.25;100.00
38038;BME280;23843;51.320;12.340;2022-11-22T06:34:24;98708.75;;;1.22;100.00
38038;BME280;23843;51.320;12.340;2022-11-22T06:36:49;98710.47;;;1.22;100.00
38038;BME280;23843;51.320;12.340;2022-11-22T06:39:16;98706.78;;;1.27;100.00
38038;BME280;23843;51.320;12.340;2022-11-22T06:41:42;98718.84;;;1.30;100.00
38038;BME280;23843;51.320;12.340;2022-11-22T06:44:08;98713.44;;;1.35;100.00
38038;BME280;23843;51.320;12.340;2022-11-22T06:46:35;98714.47;;;1.31;100.00
38038;BME280;23843;51.320;12.340;2022-11-22T06:49:00;98704.41;;;1.21;100.00
38038;BME280;23843;51.320;12.340;2022-11-22T06:51:28;98712.31;;;1.20;100.00
38038;BME280;23843;51.320;12.340;2022-11-22T06:53:55;98714.97;;;1.18;100.00
38038;BME280;23843;51.320;12.340;2022-11-22T06:56:24;98715.81;;;1.19;100.00
38038;BME280;23843;51.320;12.340;2022-11-22T06:58:51;98714.78;;;1.23;100.00
38038;BME280;23843;51.320;12.340;2022-11-22T07:01:18;98711.34;;;1.22;100.00
38038;BME280;23843;51.320;12.340;2022-11-22T07:03:44;98696.25;;;1.29;100.00
38038;BME280;23843;51.320;12.340;2022-11-22T07:06:12;98691.78;;;1.33;100.00
38038;BME280;23843;51.320;12.340;2022-11-22T07:08:38;98698.13;;;1.27;100.00
38038;BME280;23843;51.320;12.340;2022-11-22T07:11:05;98694.56;;;1.28;100.00
38038;BME280;23843;51.320;12.340;2022-11-22T07:13:33;98705.06;;;1.26;100.00
38038;BME280;23843;51.320;12.340;2022-11-22T07:16:00;98698.66;;;1.34;100.00
38038;BME280;23843;51.320;12.340;2022-11-22T07:18:27;98703.78;;;1.37;100.00
38038;BME280;23843;51.320;12.340;2022-11-22T07:20:59;98709.00;;;1.37;100.00
38038;BME280;23843;51.320;12.340;2022-11-22T07:23:24;98699.53;;;1.34;100.00
38038;BME280;23843;51.320;12.340;2022-11-22T07:25:50;98719.94;;;1.45;100.00
38038;BME280;23843;51.320;12.340;2022-11-22T07:28:15;98711.00;;;1.50;100.00
38038;BME280;23843;51.320;12.340;2022-11-22T07:30:42;98713.41;;;1.55;100.00
38038;BME280;23843;51.320;12.340;2022-11-22T07:33:08;98720.00;;;1.64;100.00
38038;BME280;23843;51.320;12.340;2022-11-22T07:35:33;98720.56;;;1.70;100.00
38038;BME280;23843;51.320;12.340;2022-11-22T07:37:59;98725.72;;;1.72;100.00
38038;BME280;23843;51.320;12.340;2022-11-22T07:40:24;98719.66;;;1.71;100.00
38038;BME280;23843;51.320;12.340;2022-11-22T07:42:50;98726.34;;;1.77;100.00
38038;BME280;23843;51.320;12.340;2022-11-22T07:45:15;98741.25;;;1.75;100.00
38038;BME280;23843;51.320;12.340;2022-11-22T07:47:42;98728.56;;;1.86;100.00
38038;BME280;23843;51.320;12.340;2022-11-22T07:50:08;98739.31;;;1.99;100.00
38038;BME280;23843;51.320;12.340;2022-11-22T07:52:34;98749.03;;;2.14;100.00
38038;BME280;23843;51.320;12.340;2022-11-22T07:54:59;98745.91;;;2.27;100.00
38038;BME280;23843;51.320;12.340;2022-11-22T07:57:25;98746.66;;;2.29;100.00
38038;BME280;23843;51.320;12.340;2022-11-22T07:59:50;98754.28;;;2.33;100.00
38038;BME280;23843;51.320;12.340;2022-11-22T08:02:16;98749.91;;;2.34;100.00
38038;BME280;23843;51.320;12.340;2022-11-22T08:04:43;98751.97;;;2.27;98.91
38038;BME280;23843;51.320;12.340;2022-11-22T08:07:08;98754.28;;;2.33;99.57
38038;BME280;23843;51.320;12.340;2022-11-22T08:09:34;98750.63;;;2.56;99.88
38038;BME280;23843;51.320;12.340;2022-11-22T08:11:59;98754.88;;;2.95;100.00
38038;BME280;23843;51.320;12.340;2022-11-22T08:14:25;98757.19;;;3.19;97.85
38038;BME280;23843;51.320;12.340;2022-11-22T08:16:50;98755.94;;;3.26;97.98
38038;BME280;23843;51.320;12.340;2022-11-22T08:19:16;98747.88;;;3.48;97.23
38038;BME280;23843;51.320;12.340;2022-11-22T08:21:43;98747.94;;;3.64;96.70
38038;BME280;23843;51.320;12.340;2022-11-22T08:24:08;98742.06;;;3.76;97.26
38038;BME280;23843;51.320;12.340;2022-11-22T08:26:33;98750.84;;;3.75;94.57
38038;BME280;23843;51.320;12.340;2022-11-22T08:28:59;98742.50;;;3.51;91.82
38038;BME280;23843;51.320;12.340;2022-11-22T08:31:25;98744.09;;;3.36;93.11
38038;BME280;23843;51.320;12.340;2022-11-22T08:33:51;98745.03;;;3.00;92.71
38038;BME280;23843;51.320;12.340;2022-11-22T08:36:17;98734.84;;;2.94;94.79
38038;BME280;23843;51.320;12.340;2022-11-22T08:38:44;98740.56;;;3.03;96.20
38038;BME280;23843;51.320;12.340;2022-11-22T08:41:10;98743.63;;;3.11;95.47
38038;BME280;23843;51.320;12.340;2022-11-22T08:43:35;98749.47;;;3.16;95.53
38038;BME280;23843;51.320;12.340;2022-11-22T08:46:01;98756.09;;;3.23;96.19
38038;BME280;23843;51.320;12.340;2022-11-22T08:48:28;98758.50;;;3.28;95.90
38038;BME280;23843;51.320;12.340;2022-11-22T08:50:55;98754.28;;;3.25;95.23
38038;BME280;23843;51.320;12.340;2022-11-22T08:53:21;98762.56;;;3.33;95.61
38038;BME280;23843;51.320;12.340;2022-11-22T08:55:48;98767.13;;;3.30;95.40
38038;BME280;23843;51.320;12.340;2022-11-22T08:58:14;98773.50;;;3.24;95.79
38038;BME280;23843;51.320;12.340;2022-11-22T09:00:40;98774.88;;;3.31;97.21
38038;BME280;23843;51.320;12.340;2022-11-22T09:03:05;98782.44;;;3.20;94.75
38038;BME280;23843;51.320;12.340;2022-11-22T09:05:30;98791.72;;;3.08;94.77
38038;BME280;23843;51.320;12.340;2022-11-22T09:07:56;98790.50;;;3.15;96.64
38038;BME280;23843;51.320;12.340;2022-11-22T09:10:22;98802.69;;;3.34;98.42
38038;BME280;23843;51.320;12.340;2022-11-22T09:12:48;98805.06;;;3.38;96.55
38038;BME280;23843;51.320;12.340;2022-11-22T09:17:59;98812.03;;;3.39;96.06
38038;BME280;23843;51.320;12.340;2022-11-22T09:20:24;98817.88;;;3.45;96.01
38038;BME280;23843;51.320;12.340;2022-11-22T09:22:50;98818.94;;;3.40;95.70
38038;BME280;23843;51.320;12.340;2022-11-22T09:25:15;98817.88;;;3.45;96.00
38038;BME280;23843;51.320;12.340;2022-11-22T09:27:41;98816.53;;;3.53;96.65
38038;BME280;23843;51.320;12.340;2022-11-22T09:30:09;98816.09;;;3.62;96.49
38038;BME280;23843;51.320;12.340;2022-11-22T09:32:35;98813.78;;;3.74;97.26
38038;BME280;23843;51.320;12.340;2022-11-22T09:35:00;98816.69;;;3.85;96.33
38038;BME280;23843;51.320;12.340;2022-11-22T09:37:26;98809.69;;;3.85;95.35
38038;BME280;23843;51.320;12.340;2022-11-22T09:39:51;98811.44;;;3.85;94.84
38038;BME280;23843;51.320;12.340;2022-11-22T09:42:29;98817.41;;;3.89;94.48
38038;BME280;23843;51.320;12.340;2022-11-22T09:45:27;98828.03;;;3.85;95.12
38038;BME280;23843;51.320;12.340;2022-11-22T09:48:00;98820.91;;;3.88;95.64
38038;BME280;23843;51.320;12.340;2022-11-22T09:50:34;98816.00;;;3.99;96.08
38038;BME280;23843;51.320;12.340;2022-11-22T09:53:07;98820.16;;;4.03;95.95
38038;BME280;23843;51.320;12.340;2022-11-22T09:55:38;98825.41;;;4.03;95.49
38038;BME280;23843;51.320;12.340;2022-11-22T09:58:09;98819.22;;;4.04;94.27
38038;BME280;23843;51.320;12.340;2022-11-22T10:00:42;98825.78;;;3.95;94.10
38038;BME280;23843;51.320;12.340;2022-11-22T10:03:13;98815.03;;;4.00;94.77
38038;BME280;23843;51.320;12.340;2022-11-22T10:05:48;98819.81;;;4.09;95.15
38038;BME280;23843;51.320;12.340;2022-11-22T10:08:22;98804.88;;;4.11;94.57
38038;BME280;23843;51.320;12.340;2022-11-22T10:10:52;98808.31;;;4.12;94.43
38038;BME280;23843;51.320;12.340;2022-11-22T10:13:27;98809.47;;;4.23;95.48
38038;BME280;23843;51.320;12.340;2022-11-22T10:15:57;98806.13;;;4.37;95.39
38038;BME280;23843;51.320;12.340;2022-11-22T10:18:31;98807.56;;;4.43;94.13
38038;BME280;23843;51.320;12.340;2022-11-22T10:21:00;98800.09;;;4.51;95.31
38038;BME280;23843;51.320;12.340;2022-11-22T10:23:26;98802.59;;;4.54;94.08
38038;BME280;23843;51.320;12.340;2022-11-22T10:25:56;98803.69;;;4.50;92.85
38038;BME280;23843;51.320;12.340;2022-11-22T10:28:27;98804.50;;;4.50;94.44
38038;BME280;23843;51.320;12.340;2022-11-22T10:31:01;98811.97;;;4.58;95.16
38038;BME280;23843;51.320;12.340;2022-11-22T10:33:29;98812.47;;;4.65;95.07
38038;BME280;23843;51.320;12.340;2022-11-22T10:36:07;98829.34;;;4.77;94.85
38038;BME280;23843;51.320;12.340;2022-11-22T10:39:02;98824.50;;;4.69;93.88
38038;BME280;23843;51.320;12.340;2022-11-22T10:41:42;98826.72;;;4.77;94.15
38038;BME280;23843;51.320;12.340;2022-11-22T10:44:19;98820.69;;;4.75;93.40
38038;BME280;23843;51.320;12.340;2022-11-22T10:46:57;98828.16;;;4.66;93.59
38038;BME280;23843;51.320;12.340;2022-11-22T10:49:38;98824.50;;;4.69;95.18
38038;BME280;23843;51.320;12.340;2022-11-22T10:52:14;98821.47;;;4.77;95.56
38038;BME280;23843;51.320;12.340;2022-11-22T10:54:47;98819.44;;;4.82;94.59
38038;BME280;23843;51.320;12.340;2022-11-22T10:57:23;98816.81;;;4.82;95.35
38038;BME280;23843;51.320;12.340;2022-11-22T10:59:59;98828.25;;;4.81;94.66
38038;BME280;23843;51.320;12.340;2022-11-22T11:02:48;98823.31;;;4.75;94.87
38038;BME280;23843;51.320;12.340;2022-11-22T11:05:19;98824.09;;;4.77;95.96
38038;BME280;23843;51.320;12.340;2022-11-22T11:07:49;98823.91;;;4.80;95.67
38038;BME280;23843;51.320;12.340;2022-11-22T11:10:17;98825.19;;;4.72;95.28
38038;BME280;23843;51.320;12.340;2022-11-22T11:12:45;98823.50;;;4.71;95.89
38038;BME280;23843;51.320;12.340;2022-11-22T11:15:17;98821.63;;;4.74;95.70
38038;BME280;23843;51.320;12.340;2022-11-22T11:17:48;98820.94;;;4.70;95.92
38038;BME280;23843;51.320;12.340;2022-11-22T11:20:21;98815.03;;;4.66;96.31
38038;BME280;23843;51.320;12.340;2022-11-22T11:22:47;98825.69;;;4.63;96.46
38038;BME280;23843;51.320;12.340;2022-11-22T11:25:29;98825.41;;;4.68;97.03
38038;BME280;23843;51.320;12.340;2022-11-22T11:27:57;98821.97;;;4.67;96.86
38038;BME280;23843;51.320;12.340;2022-11-22T11:30:25;98819.94;;;4.72;97.25
38038;BME280;23843;51.320;12.340;2022-11-22T11:32:52;98818.66;;;4.80;97.08
38038;BME280;23843;51.320;12.340;2022-11-22T11:35:20;98819.78;;;4.76;96.70
38038;BME280;23843;51.320;12.340;2022-11-22T11:37:46;98819.78;;;4.76;97.21
38038;BME280;23843;51.320;12.340;2022-11-22T11:40:25;98814.44;;;4.77;97.45
38038;BME280;23843;51.320;12.340;2022-11-22T11:43:13;98808.41;;;4.75;97.06
38038;BME280;23843;51.320;12.340;2022-11-22T11:45:39;98810.03;;;4.78;97.87
38038;BME280;23843;51.320;12.340;2022-11-22T11:48:24;98803.69;;;4.82;97.94
38038;BME280;23843;51.320;12.340;2022-11-22T11:50:50;98805.22;;;4.86;97.63
38038;BME280;23843;51.320;12.340;2022-11-22T11:53:22;98808.31;;;4.92;98.14
38038;BME280;23843;51.320;12.340;2022-11-22T11:55:48;98807.34;;;4.95;98.50
38038;BME280;23843;51.320;12.340;2022-11-22T11:58:18;98805.31;;;5.00;97.59
38038;BME280;23843;51.320;12.340;2022-11-22T12:00:45;98807.06;;;5.00;97.56
38038;BME280;23843;51.320;12.340;2022-11-22T12:03:14;98803.78;;;4.96;97.89
38038;BME280;23843;51.320;12.340;2022-11-22T12:05:41;98807.94;;;5.00;98.03
38038;BME280;23843;51.320;12.340;2022-11-22T12:08:26;98802.31;;;5.06;98.38
38038;BME280;23843;51.320;12.340;2022-11-22T12:10:57;98801.81;;;5.15;98.67
38038;BME280;23843;51.320;12.340;2022-11-22T12:13:29;98805.97;;;5.20;98.53
38038;BME280;23843;51.320;12.340;2022-11-22T12:16:03;98811.59;;;5.28;98.02
38038;BME280;23843;51.320;12.340;2022-11-22T12:18:42;98804.13;;;5.36;98.28
38038;BME280;23843;51.320;12.340;2022-11-22T12:21:19;98807.31;;;5.27;96.92
38038;BME280;23843;51.320;12.340;2022-11-22T12:23:49;98803.47;;;5.32;97.81
38038;BME280;23843;51.320;12.340;2022-11-22T12:26:18;98809.22;;;5.39;97.96
38038;BME280;23843;51.320;12.340;2022-11-22T12:28:44;98808.09;;;5.43;97.32
38038;BME280;23843;51.320;12.340;2022-11-22T12:31:21;98803.78;;;5.42;97.17
38038;BME280;23843;51.320;12.340;2022-11-22T12:33:53;98805.47;;;5.43;97.69
38038;BME280;23843;51.320;12.340;2022-11-22T12:36:22;98799.44;;;5.41;97.44
38038;BME280;23843;51.320;12.340;2022-11-22T12:38:52;98809.47;;;5.34;97.39
38038;BME280;23843;51.320;12.340;2022-11-22T12:41:20;98813.97;;;5.32;97.89
38038;BME280;23843;51.320;12.340;2022-11-22T12:43:50;98822.75;;;5.31;98.62
38038;BME280;23843;51.320;12.340;2022-11-22T12:46:20;98823.63;;;5.32;98.63
38038;BME280;23843;51.320;12.340;2022-11-22T12:48:52;98822.94;;;5.44;99.84
38038;BME280;23843;51.320;12.340;2022-11-22T12:51:23;98831.56;;;5.46;98.81
38038;BME280;23843;51.320;12.340;2022-11-22T12:53:51;98823.78;;;5.45;99.16
38038;BME280;23843;51.320;12.340;2022-11-22T12:56:27;98823.59;;;5.48;99.70
38038;BME280;23843;51.320;12.340;2022-11-22T12:58:59;98826.03;;;5.51;99.25
38038;BME280;23843;51.320;12.340;2022-11-22T13:01:29;98822.38;;;5.53;99.88
38038;BME280;23843;51.320;12.340;2022-11-22T13:04:02;98827.56;;;5.55;99.36
38038;BME280;23843;51.320;12.340;2022-11-22T13:06:40;98817.63;;;5.60;100.00
38038;BME280;23843;51.320;12.340;2022-11-22T13:09:10;98813.69;;;5.67;99.70
38038;BME280;23843;51.320;12.340;2022-11-22T13:11:41;98812.47;;;5.73;100.00
38038;BME280;23843;51.320;12.340;2022-11-22T13:14:12;98812.91;;;5.81;99.75
38038;BME280;23843;51.320;12.340;2022-11-22T13:16:39;98814.56;;;5.82;99.40
38038;BME280;23843;51.320;12.340;2022-11-22T13:19:07;98815.72;;;5.78;99.21
38038;BME280;23843;51.320;12.340;2022-11-22T13:21:45;98812.31;;;5.76;99.32
38038;BME280;23843;51.320;12.340;2022-11-22T13:24:27;98812.13;;;5.79;99.83
38038;BME280;23843;51.320;12.340;2022-11-22T13:27:02;98803.50;;;5.77;99.43
38038;BME280;23843;51.320;12.340;2022-11-22T13:29:33;98804.91;;;5.83;100.00
38038;BME280;23843;51.320;12.340;2022-11-22T13:32:02;98805.78;;;5.83;99.64
38038;BME280;23843;51.320;12.340;2022-11-22T13:34:31;98808.41;;;5.83;100.00
38038;BME280;23843;51.320;12.340;2022-11-22T13:37:04;98801.25;;;5.85;99.75
38038;BME280;23843;51.320;12.340;2022-11-22T13:39:31;98804.63;;;5.87;99.98
38038;BME280;23843;51.320;12.340;2022-11-22T13:42:02;98808.41;;;5.83;100.00
38038;BME280;23843;51.320;12.340;2022-11-22T13:44:47;98807.25;;;5.87;100.00
38038;BME280;23843;51.320;12.340;2022-11-22T13:47:39;98795.63;;;5.91;100.00
38038;BME280;23843;51.320;12.340;2022-11-22T13:53:25;98803.88;;;5.85;100.00
38038;BME280;23843;51.320;12.340;2022-11-22T13:55:51;98810.06;;;5.84;100.00
38038;BME280;23843;51.320;12.340;2022-11-22T13:58:50;98801.94;;;5.89;100.00
38038;BME280;23843;51.320;12.340;2022-11-22T14:04:28;98796.38;;;5.79;100.00
38038;BME280;23843;51.320;12.340;2022-11-22T14:07:01;98805.47;;;5.73;100.00
38038;BME280;23843;51.320;12.340;2022-11-22T14:09:33;98807.22;;;5.73;100.00
38038;BME280;23843;51.320;12.340;2022-11-22T14:12:16;98805.75;;;5.69;100.00
38038;BME280;23843;51.320;12.340;2022-11-22T14:14:53;98811.19;;;5.66;100.00
38038;BME280;23843;51.320;12.340;2022-11-22T14:17:32;98802.63;;;5.62;100.00
38038;BME280;23843;51.320;12.340;2022-11-22T14:20:10;98802.53;;;5.64;100.00
38038;BME280;23843;51.320;12.340;2022-11-22T14:22:48;98799.41;;;5.57;100.00
38038;BME280;23843;51.320;12.340;2022-11-22T14:25:45;98799.88;;;5.49;100.00
38038;BME280;23843;51.320;12.340;2022-11-22T14:28:30;98793.00;;;5.47;100.00
38038;BME280;23843;51.320;12.340;2022-11-22T14:30:59;98788.22;;;5.39;100.00
38038;BME280;23843;51.320;12.340;2022-11-22T14:34:19;98795.78;;;5.29;100.00
38038;BME280;23843;51.320;12.340;2022-11-22T14:40:00;98801.53;;;5.20;100.00
38038;BME280;23843;51.320;12.340;2022-11-22T14:42:45;98792.66;;;5.23;100.00
38038;BME280;23843;51.320;12.340;2022-11-22T14:45:16;98799.75;;;5.21;100.00
38038;BME280;23843;51.320;12.340;2022-11-22T14:47:45;98808.59;;;5.20;100.00
38038;BME280;23843;51.320;12.340;2022-11-22T14:50:21;98813.06;;;5.18;100.00
38038;BME280;23843;51.320;12.340;2022-11-22T14:52:48;98815.00;;;5.14;100.00
38038;BME280;23843;51.320;12.340;2022-11-22T14:55:16;98807.38;;;5.09;100.00
38038;BME280;23843;51.320;12.340;2022-11-22T14:57:43;98807.56;;;5.06;100.00
38038;BME280;23843;51.320;12.340;2022-11-22T15:00:16;98809.59;;;5.01;100.00
38038;BME280;23843;51.320;12.340;2022-11-22T15:03:23;98811.66;;;4.96;100.00
38038;BME280;23843;51.320;12.340;2022-11-22T15:06:11;98804.88;;;4.92;100.00
38038;BME280;23843;51.320;12.340;2022-11-22T15:08:48;98803.19;;;4.91;100.00
38038;BME280;23843;51.320;12.340;2022-11-22T15:11:27;98809.44;;;4.88;100.00
38038;BME280;23843;51.320;12.340;2022-11-22T15:14:24;98812.25;;;4.85;100.00
38038;BME280;23843;51.320;12.340;2022-11-22T15:17:04;98820.28;;;4.82;100.00
38038;BME280;23843;51.320;12.340;2022-11-22T15:19:34;98825.69;;;4.79;100.00
38038;BME280;23843;51.320;12.340;2022-11-22T15:22:10;98822.22;;;4.79;100.00
38038;BME280;23843;51.320;12.340;2022-11-22T15:24:38;98825.78;;;4.78;100.00
38038;BME280;23843;51.320;12.340;2022-11-22T15:27:14;98826.72;;;4.77;100.00
38038;BME280;23843;51.320;12.340;2022-11-22T15:29:41;98835.34;;;4.79;100.00
38038;BME280;23843;51.320;12.340;2022-11-22T15:32:08;98835.53;;;4.76;100.00
38038;BME280;23843;51.320;12.340;2022-11-22T15:34:33;98833.81;;;4.75;100.00
38038;BME280;23843;51.320;12.340;2022-11-22T15:37:05;98845.16;;;4.75;100.00
38038;BME280;23843;51.320;12.340;2022-11-22T15:39:36;98851.25;;;4.76;100.00
38038;BME280;23843;51.320;12.340;2022-11-22T15:42:04;98856.22;;;4.80;100.00
38038;BME280;23843;51.320;12.340;2022-11-22T15:44:30;98854.47;;;4.81;100.00
38038;BME280;23843;51.320;12.340;2022-11-22T15:46:56;98866.72;;;4.80;100.00
38038;BME280;23843;51.320;12.340;2022-11-22T15:49:21;98867.66;;;4.79;100.00
38038;BME280;23843;51.320;12.340;2022-11-22T15:51:51;98866.84;;;4.79;100.00
38038;BME280;23843;51.320;12.340;2022-11-22T15:54:22;98871.25;;;4.78;100.00
38038;BME280;23843;51.320;12.340;2022-11-22T15:56:55;98870.28;;;4.79;100.00
38038;BME280;23843;51.320;12.340;2022-11-22T15:59:26;98867.59;;;4.81;100.00
38038;BME280;23843;51.320;12.340;2022-11-22T16:01:55;98878.94;;;4.81;100.00
38038;BME280;23843;51.320;12.340;2022-11-22T16:04:23;98886.81;;;4.81;100.00
38038;BME280;23843;51.320;12.340;2022-11-22T16:06:50;98893.25;;;4.76;100.00
38038;BME280;23843;51.320;12.340;2022-11-22T16:09:24;98891.00;;;4.68;100.00
38038;BME280;23843;51.320;12.340;2022-11-22T16:11:56;98896.41;;;4.65;100.00
38038;BME280;23843;51.320;12.340;2022-11-22T16:14:41;98893.13;;;4.61;100.00
38038;BME280;23843;51.320;12.340;2022-11-22T16:17:30;98902.84;;;4.59;100.00
38038;BME280;23843;51.320;12.340;2022-11-22T16:20:28;98901.13;;;4.58;100.00
38038;BME280;23843;51.320;12.340;2022-11-22T16:25:46;98899.63;;;4.54;100.00
38038;BME280;23843;51.320;12.340;2022-11-22T16:28:22;98898.78;;;4.54;100.00
38038;BME280;23843;51.320;12.340;2022-11-22T16:30:49;98902.47;;;4.49;100.00
38038;BME280;23843;51.320;12.340;2022-11-22T16:33:15;98901.53;;;4.50;100.00
38038;BME280;23843;51.320;12.340;2022-11-22T16:35:40;98906.72;;;4.52;100.00
38038;BME280;23843;51.320;12.340;2022-11-22T16:38:06;98905.00;;;4.51;100.00
38038;BME280;23843;51.320;12.340;2022-11-22T16:40:31;98912.13;;;4.49;100.00
38038;BME280;23843;51.320;12.340;2022-11-22T16:43:00;98919.22;;;4.47;100.00
38038;BME280;23843;51.320;12.340;2022-11-22T16:45:29;98916.50;;;4.48;100.00
38038;BME280;23843;51.320;12.340;2022-11-22T16:47:54;98913.81;;;4.50;100.00
38038;BME280;23843;51.320;12.340;2022-11-22T16:50:19;98924.31;;;4.50;100.00
38038;BME280;23843;51.320;12.340;2022-11-22T16:52:45;98921.69;;;4.50;100.00
38038;BME280;23843;51.320;12.340;2022-11-22T16:55:13;98928.59;;;4.51;100.00
38038;BME280;23843;51.320;12.340;2022-11-22T16:57:39;98923.47;;;4.49;100.00
38038;BME280;23843;51.320;12.340;2022-11-22T17:00:06;98929.53;;;4.50;100.00
38038;BME280;23843;51.320;12.340;2022-11-22T17:02:33;98926.94;;;4.50;100.00
38038;BME280;23843;51.320;12.340;2022-11-22T17:04:58;98933.09;;;4.49;100.00
38038;BME280;23843;51.320;12.340;2022-11-22T17:07:24;98934.03;;;4.48;100.00
38038;BME280;23843;51.320;12.340;2022-11-22T17:09:49;98936.63;;;4.48;100.00
38038;BME280;23843;51.320;12.340;2022-11-22T17:12:18;98941.03;;;4.47;100.00
38038;BME280;23843;51.320;12.340;2022-11-22T17:14:45;98947.13;;;4.48;100.00
38038;BME280;23843;51.320;12.340;2022-11-22T17:17:10;98951.53;;;4.47;100.00
38038;BME280;23843;51.320;12.340;2022-11-22T17:19:37;98955.09;;;4.46;100.00
38038;BME280;23843;51.320;12.340;2022-11-22T17:22:03;98950.69;;;4.47;100.00
38038;BME280;23843;51.320;12.340;2022-11-22T17:24:28;98961.25;;;4.45;100.00
38038;BME280;23843;51.320;12.340;2022-11-22T17:26:54;98958.97;;;4.39;100.00
38038;BME280;23843;51.320;12.340;2022-11-22T17:29:19;98961.66;;;4.38;100.00
38038;BME280;23843;51.320;12.340;2022-11-22T17:31:46;98957.63;;;4.31;100.00
38038;BME280;23843;51.320;12.340;2022-11-22T17:34:12;98957.72;;;4.29;100.00
38038;BME280;23843;51.320;12.340;2022-11-22T17:36:38;98957.03;;;4.25;100.00
38038;BME280;23843;51.320;12.340;2022-11-22T17:39:05;98955.41;;;4.23;100.00
38038;BME280;23843;51.320;12.340;2022-11-22T17:41:32;98960.81;;;4.20;100.00
38038;BME280;23843;51.320;12.340;2022-11-22T17:43:58;98967.06;;;4.17;100.00
38038;BME280;23843;51.320;12.340;2022-11-22T17:46:23;98965.44;;;4.15;100.00
38038;BME280;23843;51.320;12.340;2022-11-22T17:48:49;98956.81;;;4.13;100.00
38038;BME280;23843;51.320;12.340;2022-11-22T17:51:15;98965.50;;;4.13;100.00
38038;BME280;23843;51.320;12.340;2022-11-22T17:53:42;98969.97;;;4.11;100.00
38038;BME280;23843;51.320;12.340;2022-11-22T17:56:08;98967.50;;;4.08;100.00
38038;BME280;23843;51.320;12.340;2022-11-22T17:58:34;98958.09;;;4.04;100.00
38038;BME280;23843;51.320;12.340;2022-11-22T18:01:01;98960.88;;;4.01;100.00
38038;BME280;23843;51.320;12.340;2022-11-22T18:03:28;98968.91;;;3.98;100.00
38038;BME280;23843;51.320;12.340;2022-11-22T18:05:53;98967.28;;;3.95;100.00
38038;BME280;23843;51.320;12.340;2022-11-22T18:08:19;98970.03;;;3.92;100.00
38038;BME280;23843;51.320;12.340;2022-11-22T18:10:45;98976.25;;;3.90;100.00
38038;BME280;23843;51.320;12.340;2022-11-22T18:13:11;98972.03;;;3.87;100.00
38038;BME280;23843;51.320;12.340;2022-11-22T18:15:37;98972.13;;;3.85;100.00
38038;BME280;23843;51.320;12.340;2022-11-22T18:18:03;98978.34;;;3.83;100.00
38038;BME280;23843;51.320;12.340;2022-11-22T18:20:28;98981.09;;;3.80;100.00
38038;BME280;23843;51.320;12.340;2022-11-22T18:22:54;98981.25;;;3.77;100.00
38038;BME280;23843;51.320;12.340;2022-11-22T18:25:19;98983.19;;;3.73;100.00
38038;BME280;23843;51.320;12.340;2022-11-22T18:27:46;98986.88;;;3.69;100.00
38038;BME280;23843;51.320;12.340;2022-11-22T18:30:12;98988.72;;;3.67;100.00
38038;BME280;23843;51.320;12.340;2022-11-22T18:32:38;98987.94;;;3.65;100.00
38038;BME280;23843;51.320;12.340;2022-11-22T18:35:04;99003.63;;;3.65;100.00
38038;BME280;23843;51.320;12.340;2022-11-22T18:37:29;98997.56;;;3.64;100.00
38038;BME280;23843;51.320;12.340;2022-11-22T18:39:55;99009.81;;;3.64;100.00
38038;BME280;23843;51.320;12.340;2022-11-22T18:42:20;99008.88;;;3.65;100.00
38038;BME280;23843;51.320;12.340;2022-11-22T18:44:47;99011.59;;;3.63;100.00
38038;BME280;23843;51.320;12.340;2022-11-22T18:47:12;99008.09;;;3.63;100.00
38038;BME280;23843;51.320;12.340;2022-11-22T18:49:38;99022.91;;;3.64;100.00
38038;BME280;23843;51.320;12.340;2022-11-22T18:52:03;99009.81;;;3.64;100.00
38038;BME280;23843;51.320;12.340;2022-11-22T18:54:29;99013.34;;;3.63;100.00